Time;durP1;ratioP1;P1;durP2;ratioP2;P2;SDS_P1;SDS_P2;PMS_P1;PMS_P2;Temp;Humidity;BMP_temperature;BMP_pressure;BME280_temperature;BME280_humidity;BME280_pressure;Samples;Min_cycle;Max_cycle;Signal;HPM_P1;HPM_P2
2021/07/25 00:01:41;;;;;;;;;;;24.70;71.00;;;;;;5201390;28;19936;-64
2021/07/25 00:04:15;;;;;;;;;;;24.70;71.00;;;;;;5198327;28;20393;-64
2021/07/25 00:06:47;;;;;;;;;;;24.70;71.00;;;;;;5202385;28;20404;-63
2021/07/25 00:09:20;;;;;;;;;;;24.70;71.00;;;;;;5205432;28;19936;-63
2021/07/25 00:11:53;;;;;;;;;;;24.70;71.10;;;;;;5194810;28;20404;-64
2021/07/25 00:14:25;;;;;;;;;;;24.70;71.00;;;;;;5195347;28;19936;-64
2021/07/25 00:16:59;;;;;;;;;;;24.70;71.10;;;;;;5202912;28;19936;-64
2021/07/25 00:19:33;;;;;;;;;;;24.70;71.00;;;;;;5200932;28;19931;-64
2021/07/25 00:22:05;;;;;;;;;;;24.70;71.70;;;;;;5199566;28;19925;-65
2021/07/25 00:24:39;;;;;;;;;;;24.70;71.10;;;;;;5202660;28;19925;-64
2021/07/25 00:27:11;;;;;;;;;;;24.70;71.10;;;;;;5198682;28;19924;-64
2021/07/25 00:29:44;;;;;;;;;;;24.70;71.00;;;;;;5196944;28;20059;-64
2021/07/25 00:32:24;;;;;;;;;;;24.70;71.10;;;;;;5203075;28;19931;-64
2021/07/25 00:34:57;;;;;;;;;;;24.70;71.00;;;;;;5197980;28;20393;-64
2021/07/25 00:37:29;;;;;;;;;;;24.70;71.10;;;;;;5197120;28;19956;-63
2021/07/25 00:40:02;;;;;;;;;;;24.70;71.10;;;;;;5202086;28;19935;-64
2021/07/25 00:42:37;;;;;;;;;;;24.70;71.10;;;;;;5182385;28;19936;-64
2021/07/25 00:45:10;;;;;;;;;;;24.70;71.10;;;;;;5201740;28;19925;-64
2021/07/25 00:47:43;;;;;;;;;;;24.70;71.10;;;;;;5203211;28;19924;-63
2021/07/25 00:50:16;;;;;;;;;;;24.70;71.20;;;;;;5198710;28;19929;-64
2021/07/25 00:52:49;;;;;;;;;;;24.70;71.20;;;;;;5184832;28;19921;-63
2021/07/25 00:55:21;;;;;;;;;;;24.70;71.10;;;;;;5196910;28;20309;-64
2021/07/25 00:57:54;;;;;;;;;;;24.70;71.10;;;;;;5198971;28;19924;-64
2021/07/25 01:00:26;;;;;;;;;;;24.70;71.10;;;;;;5192343;28;19932;-64
2021/07/25 01:03:25;;;;;;;;;;;24.70;71.10;;;;;;5199902;28;20546;-63
2021/07/25 01:06:10;;;;;;;;;;;24.70;71.10;;;;;;5201055;28;19932;-64
2021/07/25 01:08:52;;;;;;;;;;;24.70;71.10;;;;;;5196201;28;19925;-64
2021/07/25 01:11:27;;;;;;;;;;;24.60;71.10;;;;;;5201680;28;19925;-63
2021/07/25 01:14:02;;;;;;;;;;;24.60;71.10;;;;;;5199101;28;19925;-64
2021/07/25 01:16:34;;;;;;;;;;;24.60;71.10;;;;;;5201685;28;20260;-64
2021/07/25 01:19:07;;;;;;;;;;;24.70;71.10;;;;;;5199268;28;20440;-64
2021/07/25 01:21:39;;;;;;;;;;;24.60;71.10;;;;;;5185026;28;20405;-63
2021/07/25 01:24:11;;;;;;;;;;;24.60;71.10;;;;;;5192780;28;19925;-63
2021/07/25 01:26:44;;;;;;;;;;;24.60;71.10;;;;;;5195963;28;20313;-64
2021/07/25 01:29:31;;;;;;;;;;;24.60;71.10;;;;;;5193464;28;19936;-64
2021/07/25 01:32:03;;;;;;;;;;;24.60;71.10;;;;;;5198650;28;19932;-65
2021/07/25 01:34:36;;;;;;;;;;;24.60;71.10;;;;;;5198374;28;19940;-64
2021/07/25 01:37:08;;;;;;;;;;;24.60;71.10;;;;;;5196136;28;20412;-64
2021/07/25 01:39:40;;;;;;;;;;;24.60;71.10;;;;;;5190274;28;19997;-64
2021/07/25 01:42:24;;;;;;;;;;;24.60;71.10;;;;;;5202080;28;19924;-64
2021/07/25 01:44:57;;;;;;;;;;;24.60;71.10;;;;;;5199269;28;20355;-64
2021/07/25 01:47:29;;;;;;;;;;;24.60;71.10;;;;;;5194665;28;19924;-64
2021/07/25 01:50:02;;;;;;;;;;;24.60;71.10;;;;;;5194183;28;19929;-64
2021/07/25 01:52:36;;;;;;;;;;;24.60;71.10;;;;;;5200228;28;19932;-64
2021/07/25 01:55:08;;;;;;;;;;;24.60;71.20;;;;;;5197394;28;19925;-64
2021/07/25 01:57:40;;;;;;;;;;;24.60;71.10;;;;;;5199929;28;19925;-64
2021/07/25 02:00:13;;;;;;;;;;;24.60;71.10;;;;;;5196373;28;19935;-64
2021/07/25 02:02:45;;;;;;;;;;;24.60;71.20;;;;;;5197719;28;19931;-64
2021/07/25 02:05:17;;;;;;;;;;;24.60;71.10;;;;;;5192126;28;20811;-65
2021/07/25 02:07:49;;;;;;;;;;;24.60;71.10;;;;;;5197282;28;20408;-64
2021/07/25 02:10:22;;;;;;;;;;;24.60;71.20;;;;;;5195744;28;19925;-63
2021/07/25 02:12:54;;;;;;;;;;;24.60;71.20;;;;;;5200031;28;19924;-64
2021/07/25 02:15:26;;;;;;;;;;;24.60;71.10;;;;;;5203306;28;19925;-64
2021/07/25 02:17:59;;;;;;;;;;;24.60;71.10;;;;;;5197883;28;19936;-64
2021/07/25 02:20:31;;;;;;;;;;;24.60;71.20;;;;;;5194772;28;20443;-64
2021/07/25 02:23:03;;;;;;;;;;;24.60;71.10;;;;;;5198116;28;19936;-64
2021/07/25 02:25:37;;;;;;;;;;;24.60;71.10;;;;;;5201868;28;19944;-64
2021/07/25 02:28:12;;;;;;;;;;;24.60;71.20;;;;;;5188943;28;19924;-64
2021/07/25 02:30:44;;;;;;;;;;;24.60;71.20;;;;;;5200514;28;19929;-64
2021/07/25 02:33:17;;;;;;;;;;;24.60;71.20;;;;;;5195640;28;19935;-64
2021/07/25 02:35:49;;;;;;;;;;;24.60;71.20;;;;;;5199644;28;19928;-64
2021/07/25 02:38:21;;;;;;;;;;;24.60;71.20;;;;;;5195202;28;19929;-64
2021/07/25 02:40:53;;;;;;;;;;;24.60;71.20;;;;;;5211272;28;19928;-64
2021/07/25 02:43:25;;;;;;;;;;;24.60;71.20;;;;;;5199744;28;20129;-65
2021/07/25 02:45:58;;;;;;;;;;;24.60;71.20;;;;;;5195708;28;19931;-64
2021/07/25 02:48:30;;;;;;;;;;;24.60;71.20;;;;;;5189899;28;20338;-64
2021/07/25 02:51:02;;;;;;;;;;;24.60;71.20;;;;;;5192954;28;19925;-63
2021/07/25 02:53:34;;;;;;;;;;;24.60;71.20;;;;;;5194368;28;19925;-64
2021/07/25 02:56:07;;;;;;;;;;;24.60;71.20;;;;;;5196251;28;20274;-63
2021/07/25 02:58:39;;;;;;;;;;;24.60;71.20;;;;;;5195091;28;20401;-64
2021/07/25 03:01:13;;;;;;;;;;;24.60;71.20;;;;;;5192483;28;20340;-64
2021/07/25 03:03:45;;;;;;;;;;;24.60;71.20;;;;;;5195342;28;19924;-64
2021/07/25 03:06:17;;;;;;;;;;;24.60;71.20;;;;;;5181409;28;19929;-64
2021/07/25 03:08:50;;;;;;;;;;;24.60;71.20;;;;;;5199385;28;19927;-64
2021/07/25 03:11:22;;;;;;;;;;;24.60;71.20;;;;;;5199414;28;19929;-64
2021/07/25 03:13:54;;;;;;;;;;;24.60;71.20;;;;;;5200131;28;19931;-64
2021/07/25 03:16:26;;;;;;;;;;;24.60;71.20;;;;;;5199360;28;19924;-63
2021/07/25 03:18:59;;;;;;;;;;;24.60;71.20;;;;;;5202732;28;19921;-63
2021/07/25 03:21:31;;;;;;;;;;;24.60;71.20;;;;;;5204396;28;19931;-64
2021/07/25 03:24:04;;;;;;;;;;;24.60;71.20;;;;;;5204862;28;19929;-64
2021/07/25 03:26:36;;;;;;;;;;;24.60;71.20;;;;;;5197729;28;19944;-64
2021/07/25 03:29:08;;;;;;;;;;;24.50;71.20;;;;;;5201573;28;20019;-64
2021/07/25 03:31:40;;;;;;;;;;;24.60;71.20;;;;;;5197544;28;19932;-64
2021/07/25 03:34:13;;;;;;;;;;;24.50;71.20;;;;;;5187136;28;19929;-64
2021/07/25 03:36:45;;;;;;;;;;;24.50;71.20;;;;;;5204730;28;19932;-64
2021/07/25 03:39:20;;;;;;;;;;;24.60;71.20;;;;;;5199635;28;20622;-65
2021/07/25 03:41:52;;;;;;;;;;;24.50;71.20;;;;;;5192642;28;19928;-64
2021/07/25 03:44:25;;;;;;;;;;;24.60;71.30;;;;;;5198797;28;19925;-66
2021/07/25 03:46:57;;;;;;;;;;;24.60;71.20;;;;;;5186481;28;19921;-64
2021/07/25 03:49:30;;;;;;;;;;;24.60;71.20;;;;;;5199304;28;19936;-64
2021/07/25 03:52:03;;;;;;;;;;;24.50;71.20;;;;;;5202646;28;20292;-64
2021/07/25 03:54:38;;;;;;;;;;;24.50;71.20;;;;;;5201635;28;20544;-65
2021/07/25 03:57:10;;;;;;;;;;;24.50;71.20;;;;;;5202353;28;19925;-65
2021/07/25 03:59:43;;;;;;;;;;;24.50;71.20;;;;;;5200456;28;19928;-64
2021/07/25 04:02:16;;;;;;;;;;;24.60;71.30;;;;;;5198321;28;20312;-64
2021/07/25 04:04:48;;;;;;;;;;;24.50;71.20;;;;;;5193325;28;19931;-64
2021/07/25 04:07:20;;;;;;;;;;;24.50;71.20;;;;;;5201212;28;19936;-65
2021/07/25 04:09:52;;;;;;;;;;;24.50;71.20;;;;;;5182854;28;19929;-64
2021/07/25 04:12:25;;;;;;;;;;;24.50;71.20;;;;;;5214440;28;19944;-64
2021/07/25 04:14:58;;;;;;;;;;;24.50;71.20;;;;;;5195656;28;19928;-64
2021/07/25 04:17:34;;;;;;;;;;;24.50;71.20;;;;;;5186872;28;19936;-64
2021/07/25 04:20:07;;;;;;;;;;;24.50;71.20;;;;;;5201978;28;19921;-64
2021/07/25 04:22:39;;;;;;;;;;;24.50;71.20;;;;;;5204623;28;20347;-64
2021/07/25 04:25:11;;;;;;;;;;;24.50;71.20;;;;;;5199492;28;19932;-64
2021/07/25 04:27:43;;;;;;;;;;;24.50;71.20;;;;;;5202015;28;19925;-64
2021/07/25 04:30:16;;;;;;;;;;;24.50;71.20;;;;;;5202367;28;19925;-64
2021/07/25 04:32:48;;;;;;;;;;;24.50;71.20;;;;;;5176962;28;20427;-64
2021/07/25 04:35:21;;;;;;;;;;;24.50;71.20;;;;;;5201524;28;19931;-64
2021/07/25 04:37:54;;;;;;;;;;;24.50;71.20;;;;;;5182537;28;19929;-64
2021/07/25 04:40:28;;;;;;;;;;;24.50;71.20;;;;;;5183614;28;19929;-64
2021/07/25 04:43:02;;;;;;;;;;;24.50;71.20;;;;;;5199491;28;19925;-64
2021/07/25 04:45:40;;;;;;;;;;;24.50;71.20;;;;;;5202480;28;19928;-64
2021/07/25 04:48:18;;;;;;;;;;;24.50;71.20;;;;;;5199398;28;19921;-64
2021/07/25 04:50:51;;;;;;;;;;;24.50;71.20;;;;;;5199883;28;19932;-63
2021/07/25 04:53:25;;;;;;;;;;;24.50;71.20;;;;;;5201990;28;19921;-64
2021/07/25 04:55:58;;;;;;;;;;;24.50;71.20;;;;;;5183018;28;19924;-64
2021/07/25 04:58:51;;;;;;;;;;;24.50;71.20;;;;;;5198279;28;20563;-64
2021/07/25 05:01:24;;;;;;;;;;;24.50;71.20;;;;;;5197471;28;20304;-64
2021/07/25 05:03:56;;;;;;;;;;;24.50;71.20;;;;;;5178850;28;19928;-65
2021/07/25 05:06:31;;;;;;;;;;;24.50;71.20;;;;;;5202901;28;19928;-65
2021/07/25 05:09:03;;;;;;;;;;;24.50;71.20;;;;;;5185032;28;19929;-64
2021/07/25 05:11:41;;;;;;;;;;;24.50;71.20;;;;;;5215300;28;20401;-64
2021/07/25 05:14:21;;;;;;;;;;;24.50;71.20;;;;;;5186821;28;19984;-64
2021/07/25 05:16:58;;;;;;;;;;;24.50;71.20;;;;;;5193951;28;22555;-65
2021/07/25 05:19:45;;;;;;;;;;;24.50;71.20;;;;;;5196205;28;20571;-64
2021/07/25 05:22:35;;;;;;;;;;;24.50;71.20;;;;;;5191568;28;19929;-64
2021/07/25 05:25:08;;;;;;;;;;;24.50;71.10;;;;;;5201594;28;19928;-63
2021/07/25 05:27:41;;;;;;;;;;;24.50;71.20;;;;;;5181470;28;19959;-64
2021/07/25 05:30:15;;;;;;;;;;;24.50;71.20;;;;;;5182088;28;20332;-65
2021/07/25 05:32:48;;;;;;;;;;;24.50;71.10;;;;;;5200641;28;19932;-64
2021/07/25 05:35:20;;;;;;;;;;;24.50;71.10;;;;;;5186941;28;20373;-64
2021/07/25 05:37:52;;;;;;;;;;;24.50;71.10;;;;;;5198343;28;19936;-65
2021/07/25 05:40:24;;;;;;;;;;;24.50;71.20;;;;;;5198964;28;19921;-64
2021/07/25 05:42:56;;;;;;;;;;;24.50;71.10;;;;;;5202322;28;19936;-64
2021/07/25 05:45:29;;;;;;;;;;;24.50;71.20;;;;;;5199611;28;19924;-64
2021/07/25 05:48:01;;;;;;;;;;;24.50;71.10;;;;;;5200370;28;19929;-64
2021/07/25 05:50:34;;;;;;;;;;;24.50;71.10;;;;;;5199580;28;20519;-64
2021/07/25 05:53:06;;;;;;;;;;;24.50;71.10;;;;;;5201682;28;19921;-64
2021/07/25 05:55:38;;;;;;;;;;;24.50;71.10;;;;;;5204942;28;19931;-64
2021/07/25 05:58:11;;;;;;;;;;;24.50;71.10;;;;;;5198149;28;19928;-64
2021/07/25 06:00:43;;;;;;;;;;;24.50;71.00;;;;;;5189779;28;20305;-64
2021/07/25 06:03:15;;;;;;;;;;;24.50;71.00;;;;;;5203901;28;19929;-64
2021/07/25 06:05:47;;;;;;;;;;;24.50;71.00;;;;;;5201253;28;19925;-64
2021/07/25 06:08:20;;;;;;;;;;;24.60;71.00;;;;;;5201235;28;19928;-64
2021/07/25 06:10:52;;;;;;;;;;;24.60;71.00;;;;;;5197471;28;19925;-64
2021/07/25 06:13:24;;;;;;;;;;;24.60;71.00;;;;;;5199565;28;19928;-64
2021/07/25 06:15:56;;;;;;;;;;;24.60;71.00;;;;;;5201603;28;19925;-64
2021/07/25 06:18:28;;;;;;;;;;;24.50;70.90;;;;;;5201032;28;19928;-63
2021/07/25 06:21:01;;;;;;;;;;;24.60;71.00;;;;;;5202228;28;19921;-64
2021/07/25 06:23:33;;;;;;;;;;;24.60;71.00;;;;;;5182506;28;19940;-64
2021/07/25 06:26:05;;;;;;;;;;;24.50;70.90;;;;;;5200711;28;20004;-63
2021/07/25 06:28:37;;;;;;;;;;;24.60;70.90;;;;;;5198280;28;25457;-64
2021/07/25 06:31:10;;;;;;;;;;;24.60;70.90;;;;;;5205007;28;19928;-64
2021/07/25 06:33:42;;;;;;;;;;;24.60;70.90;;;;;;5184684;28;19924;-64
2021/07/25 06:36:14;;;;;;;;;;;24.60;70.90;;;;;;5203561;28;19925;-64
2021/07/25 06:38:47;;;;;;;;;;;24.60;70.90;;;;;;5197699;28;20286;-64
2021/07/25 06:41:19;;;;;;;;;;;24.60;70.90;;;;;;5197766;28;19920;-64
2021/07/25 06:43:51;;;;;;;;;;;24.60;70.90;;;;;;5196162;28;19936;-65
2021/07/25 06:46:23;;;;;;;;;;;24.60;70.90;;;;;;5188211;28;19925;-64
2021/07/25 06:48:56;;;;;;;;;;;24.60;70.90;;;;;;5195005;28;19932;-64
2021/07/25 06:51:28;;;;;;;;;;;24.60;70.90;;;;;;5197907;28;19929;-64
2021/07/25 06:54:03;;;;;;;;;;;24.60;70.90;;;;;;5181769;28;20328;-64
2021/07/25 06:56:43;;;;;;;;;;;24.60;70.90;;;;;;5188499;28;19925;-64
2021/07/25 06:59:15;;;;;;;;;;;24.60;70.90;;;;;;5203531;28;19929;-65
2021/07/25 07:01:48;;;;;;;;;;;24.60;70.90;;;;;;5198812;28;19944;-65
2021/07/25 07:04:20;;;;;;;;;;;24.60;70.90;;;;;;5207492;28;20357;-64
2021/07/25 07:06:52;;;;;;;;;;;24.60;70.90;;;;;;5186727;28;19920;-64
2021/07/25 07:09:25;;;;;;;;;;;24.60;70.80;;;;;;5201702;28;19936;-64
2021/07/25 07:12:00;;;;;;;;;;;24.60;70.90;;;;;;5184222;28;19921;-64
2021/07/25 07:14:32;;;;;;;;;;;24.60;70.80;;;;;;5201535;28;20303;-63
2021/07/25 07:17:04;;;;;;;;;;;24.60;70.80;;;;;;5206765;28;20307;-64
2021/07/25 07:19:37;;;;;;;;;;;24.60;70.80;;;;;;5205077;28;19972;-64
2021/07/25 07:22:09;;;;;;;;;;;24.60;70.80;;;;;;5189595;28;19928;-64
2021/07/25 07:24:41;;;;;;;;;;;24.60;70.80;;;;;;5193577;28;20301;-64
2021/07/25 07:27:13;;;;;;;;;;;24.60;70.80;;;;;;5197126;28;19924;-64
2021/07/25 07:29:45;;;;;;;;;;;24.60;70.90;;;;;;5202530;28;19928;-64
2021/07/25 07:32:18;;;;;;;;;;;24.70;70.90;;;;;;5204593;28;19921;-64
2021/07/25 07:34:50;;;;;;;;;;;24.70;70.80;;;;;;5200008;28;20381;-64
2021/07/25 07:37:22;;;;;;;;;;;24.70;70.80;;;;;;5200142;28;19936;-64
2021/07/25 07:39:55;;;;;;;;;;;24.70;70.90;;;;;;5200492;28;20681;-64
2021/07/25 07:42:27;;;;;;;;;;;24.70;70.80;;;;;;5197981;28;19928;-63
2021/07/25 07:45:00;;;;;;;;;;;24.70;70.80;;;;;;5201204;28;20301;-64
2021/07/25 07:47:32;;;;;;;;;;;24.70;70.80;;;;;;5199162;28;20420;-64
2021/07/25 07:50:05;;;;;;;;;;;24.70;70.80;;;;;;5202175;28;19920;-64
2021/07/25 07:52:37;;;;;;;;;;;24.70;70.80;;;;;;5200597;28;19929;-64
2021/07/25 07:55:09;;;;;;;;;;;24.70;70.70;;;;;;5168372;28;19925;-64
2021/07/25 07:57:42;;;;;;;;;;;24.70;70.70;;;;;;5164223;28;19925;-64
2021/07/25 08:00:14;;;;;;;;;;;24.70;70.70;;;;;;5200742;28;19932;-64
2021/07/25 08:02:46;;;;;;;;;;;24.70;70.70;;;;;;5196397;28;19939;-64
2021/07/25 08:05:20;;;;;;;;;;;24.70;70.80;;;;;;5204184;28;19936;-64
2021/07/25 08:07:52;;;;;;;;;;;24.70;70.70;;;;;;5200893;28;19932;-63
2021/07/25 08:10:24;;;;;;;;;;;24.70;70.80;;;;;;5202892;28;19955;-64
2021/07/25 08:12:56;;;;;;;;;;;24.70;70.70;;;;;;5196334;28;19929;-64
2021/07/25 08:15:29;;;;;;;;;;;24.70;70.70;;;;;;5200807;28;19931;-63
2021/07/25 08:18:01;;;;;;;;;;;24.70;70.70;;;;;;5199596;28;19927;-63
2021/07/25 08:20:33;;;;;;;;;;;24.70;70.70;;;;;;5201226;28;19920;-64
2021/07/25 08:23:06;;;;;;;;;;;24.70;70.70;;;;;;5200980;28;19925;-62
2021/07/25 08:25:38;;;;;;;;;;;24.70;70.70;;;;;;5203710;28;19928;-64
2021/07/25 08:28:10;;;;;;;;;;;24.70;70.60;;;;;;5196946;28;19927;-64
2021/07/25 08:30:42;;;;;;;;;;;24.80;70.70;;;;;;5201799;28;20185;-64
2021/07/25 08:33:18;;;;;;;;;;;24.80;70.70;;;;;;5186731;28;20591;-64
2021/07/25 08:35:51;;;;;;;;;;;24.80;70.60;;;;;;5203921;28;20403;-64
2021/07/25 08:38:23;;;;;;;;;;;24.80;70.60;;;;;;5186178;28;19931;-64
2021/07/25 08:41:10;;;;;;;;;;;24.80;70.60;;;;;;5203985;28;19935;-63
2021/07/25 08:43:43;;;;;;;;;;;24.80;70.70;;;;;;5202594;28;19932;-64
2021/07/25 08:46:15;;;;;;;;;;;24.80;70.60;;;;;;5185154;28;19931;-64
2021/07/25 08:48:48;;;;;;;;;;;24.80;70.60;;;;;;5204156;28;19935;-64
2021/07/25 08:51:21;;;;;;;;;;;24.80;70.70;;;;;;5201003;28;19921;-64
2021/07/25 08:54:01;;;;;;;;;;;24.80;70.70;;;;;;5176841;28;19928;-64
2021/07/25 08:56:34;;;;;;;;;;;24.80;70.60;;;;;;5202026;28;19933;-64
2021/07/25 08:59:07;;;;;;;;;;;24.80;70.60;;;;;;5198973;28;19925;-64
2021/07/25 09:01:40;;;;;;;;;;;24.80;70.60;;;;;;5203175;28;19924;-64
2021/07/25 09:04:12;;;;;;;;;;;24.80;70.60;;;;;;5198116;28;20404;-64
2021/07/25 09:06:45;;;;;;;;;;;24.80;70.60;;;;;;5198171;28;19925;-64
2021/07/25 09:09:19;;;;;;;;;;;24.80;70.60;;;;;;5193269;28;19932;-64
2021/07/25 09:11:51;;;;;;;;;;;24.80;70.60;;;;;;5203027;28;19928;-63
2021/07/25 09:14:23;;;;;;;;;;;24.80;70.70;;;;;;5172931;28;19953;-64
2021/07/25 09:16:56;;;;;;;;;;;24.80;70.60;;;;;;5203083;28;19925;-63
2021/07/25 09:19:28;;;;;;;;;;;24.80;70.60;;;;;;5200862;28;20619;-64
2021/07/25 09:22:02;;;;;;;;;;;24.80;70.60;;;;;;5201972;28;19928;-64
2021/07/25 09:24:34;;;;;;;;;;;24.80;70.60;;;;;;5203115;28;19928;-64
2021/07/25 09:27:07;;;;;;;;;;;24.80;70.70;;;;;;5203046;28;19924;-63
2021/07/25 09:29:39;;;;;;;;;;;24.80;70.60;;;;;;5202652;28;19975;-63
2021/07/25 09:32:15;;;;;;;;;;;24.80;70.70;;;;;;5189791;28;20001;-64
2021/07/25 09:34:48;;;;;;;;;;;24.80;70.60;;;;;;5203652;28;19921;-64
2021/07/25 09:37:22;;;;;;;;;;;24.80;70.60;;;;;;5200515;28;19935;-65
2021/07/25 09:39:55;;;;;;;;;;;24.80;70.70;;;;;;5190773;28;19932;-63
2021/07/25 09:42:28;;;;;;;;;;;24.80;70.60;;;;;;5196241;28;19932;-64
2021/07/25 09:45:00;;;;;;;;;;;24.80;70.60;;;;;;5217181;28;19925;-64
2021/07/25 09:47:34;;;;;;;;;;;24.80;70.60;;;;;;5186037;28;19967;-64
2021/07/25 09:50:07;;;;;;;;;;;24.80;70.70;;;;;;5199372;28;19925;-64
2021/07/25 09:52:39;;;;;;;;;;;24.80;70.60;;;;;;5202374;28;19928;-64
2021/07/25 09:55:12;;;;;;;;;;;24.80;70.70;;;;;;5172877;28;19932;-63
2021/07/25 09:57:53;;;;;;;;;;;24.80;70.60;;;;;;5193586;28;19928;-63
2021/07/25 10:00:36;;;;;;;;;;;24.80;70.60;;;;;;5186704;28;20296;-64
2021/07/25 10:03:18;;;;;;;;;;;24.90;70.60;;;;;;5198903;28;19925;-63
2021/07/25 10:05:51;;;;;;;;;;;24.80;70.50;;;;;;5181696;28;20305;-64
2021/07/25 10:08:24;;;;;;;;;;;24.80;70.50;;;;;;5194682;28;19929;-63
2021/07/25 10:10:57;;;;;;;;;;;24.80;70.50;;;;;;5198777;28;19925;-64
2021/07/25 10:13:30;;;;;;;;;;;24.90;70.60;;;;;;5176988;28;20420;-64
2021/07/25 10:16:03;;;;;;;;;;;24.90;70.60;;;;;;5182834;28;20412;-64
2021/07/25 10:18:38;;;;;;;;;;;24.80;70.50;;;;;;5194694;28;19943;-64
2021/07/25 10:21:10;;;;;;;;;;;24.80;70.50;;;;;;5204918;28;19937;-64
2021/07/25 10:23:55;;;;;;;;;;;24.80;70.50;;;;;;5195774;28;19928;-64
2021/07/25 10:26:28;;;;;;;;;;;24.90;70.50;;;;;;5194885;28;19931;-64
2021/07/25 10:29:01;;;;;;;;;;;24.90;70.50;;;;;;5199777;28;19936;-64
2021/07/25 10:31:36;;;;;;;;;;;24.90;70.50;;;;;;5166466;28;19929;-65
2021/07/25 10:34:10;;;;;;;;;;;24.90;70.50;;;;;;5203063;28;19924;-64
2021/07/25 10:36:44;;;;;;;;;;;24.90;70.50;;;;;;5204529;28;19925;-64
2021/07/25 10:39:17;;;;;;;;;;;24.90;70.50;;;;;;5190303;28;19932;-64
2021/07/25 10:41:51;;;;;;;;;;;24.90;70.40;;;;;;5204203;28;20055;-64
2021/07/25 10:44:23;;;;;;;;;;;24.90;70.40;;;;;;5193807;28;19931;-64
2021/07/25 10:47:15;;;;;;;;;;;24.90;70.40;;;;;;5198735;28;19928;-64
2021/07/25 10:50:00;;;;;;;;;;;24.90;70.50;;;;;;5200445;28;19920;-64
2021/07/25 10:53:00;;;;;;;;;;;25.00;70.40;;;;;;5222180;28;19921;-63
2021/07/25 10:55:35;;;;;;;;;;;25.00;70.50;;;;;;5199137;28;19944;-64
2021/07/25 10:58:18;;;;;;;;;;;25.00;70.40;;;;;;5201029;28;19928;-64
2021/07/25 11:05:17;;;;;;;;;;;24.90;70.40;;;;;;5188192;28;19917;-64
2021/07/25 11:07:55;;;;;;;;;;;24.90;70.30;;;;;;5209469;28;19929;-64
2021/07/25 11:10:32;;;;;;;;;;;25.00;70.40;;;;;;5201347;28;19929;-64
2021/07/25 11:13:04;;;;;;;;;;;25.00;70.40;;;;;;5201029;28;20080;-65
2021/07/25 11:15:36;;;;;;;;;;;25.00;70.40;;;;;;5187585;28;19928;-64
2021/07/25 11:18:11;;;;;;;;;;;25.00;70.40;;;;;;5202595;28;19921;-64
2021/07/25 11:21:00;;;;;;;;;;;25.00;70.30;;;;;;5184275;28;20337;-64
2021/07/25 11:23:33;;;;;;;;;;;25.00;70.30;;;;;;5212242;28;19928;-64
2021/07/25 11:26:25;;;;;;;;;;;25.00;70.40;;;;;;5206024;28;19928;-64
2021/07/25 11:28:57;;;;;;;;;;;25.00;70.30;;;;;;5203133;28;19927;-64
2021/07/25 11:31:40;;;;;;;;;;;25.00;70.30;;;;;;5201524;28;19947;-64
2021/07/25 11:34:27;;;;;;;;;;;25.00;70.30;;;;;;5195875;28;19927;-64
2021/07/25 11:37:02;;;;;;;;;;;25.00;70.30;;;;;;5195913;28;19994;-64
2021/07/25 11:39:34;;;;;;;;;;;25.00;70.30;;;;;;5187556;28;19931;-63
2021/07/25 11:42:07;;;;;;;;;;;25.00;70.30;;;;;;5194294;28;19921;-64
2021/07/25 11:44:42;;;;;;;;;;;25.00;70.30;;;;;;5186396;28;20409;-63
2021/07/25 11:47:14;;;;;;;;;;;25.00;70.30;;;;;;5201137;28;19929;-64
2021/07/25 11:49:47;;;;;;;;;;;25.00;70.30;;;;;;5205717;28;19921;-64
2021/07/25 11:52:19;;;;;;;;;;;25.00;70.30;;;;;;5202147;28;19944;-63
2021/07/25 11:54:51;;;;;;;;;;;25.00;70.30;;;;;;5202632;28;19932;-64
2021/07/25 11:57:24;;;;;;;;;;;25.00;70.30;;;;;;5188921;28;20385;-64
2021/07/25 12:00:01;;;;;;;;;;;25.00;70.20;;;;;;5203409;28;20862;-64
2021/07/25 12:02:38;;;;;;;;;;;25.00;70.30;;;;;;5187773;28;19924;-64
2021/07/25 12:05:12;;;;;;;;;;;25.00;70.30;;;;;;5188062;28;19928;-64
2021/07/25 12:08:09;;;;;;;;;;;25.00;70.30;;;;;;5202227;28;19932;-64
2021/07/25 12:10:42;;;;;;;;;;;25.00;70.30;;;;;;5204830;28;19920;-63
2021/07/25 12:13:17;;;;;;;;;;;25.00;70.30;;;;;;5200814;28;19936;-64
2021/07/25 12:15:50;;;;;;;;;;;25.00;70.40;;;;;;5197943;28;19928;-64
2021/07/25 12:18:29;;;;;;;;;;;25.00;70.30;;;;;;5188203;28;19940;-64
2021/07/25 12:21:01;;;;;;;;;;;25.00;70.30;;;;;;5201947;28;19921;-64
2021/07/25 12:23:37;;;;;;;;;;;25.00;70.30;;;;;;5207712;28;19925;-64
2021/07/25 12:26:09;;;;;;;;;;;25.00;70.30;;;;;;5185685;28;19940;-64
2021/07/25 12:28:41;;;;;;;;;;;25.00;70.30;;;;;;5200289;28;19925;-64
2021/07/25 12:31:14;;;;;;;;;;;25.00;70.30;;;;;;5201727;28;20412;-64
2021/07/25 12:33:46;;;;;;;;;;;25.00;70.30;;;;;;5204735;28;20415;-64
2021/07/25 12:36:31;;;;;;;;;;;25.00;70.30;;;;;;5189974;28;20297;-64
2021/07/25 12:39:16;;;;;;;;;;;25.00;70.30;;;;;;5180161;28;19931;-64
2021/07/25 12:41:49;;;;;;;;;;;25.00;70.30;;;;;;5198053;28;20377;-64
2021/07/25 12:44:25;;;;;;;;;;;25.00;70.40;;;;;;5213148;28;19929;-64
2021/07/25 12:47:23;;;;;;;;;;;25.00;70.40;;;;;;5199724;28;19931;-64
2021/07/25 12:49:58;;;;;;;;;;;25.00;70.40;;;;;;5201880;28;20377;-64
2021/07/25 12:52:31;;;;;;;;;;;25.00;70.30;;;;;;5173358;28;19925;-64
2021/07/25 12:55:04;;;;;;;;;;;25.00;70.40;;;;;;4499692;28;10000484;-63
2021/07/25 12:57:36;;;;;;;;;;;25.00;70.30;;;;;;5191321;28;19935;-64
2021/07/25 13:00:09;;;;;;;;;;;25.00;70.30;;;;;;5199940;28;20301;-64
2021/07/25 13:05:32;;;;;;;;;;;25.00;70.40;;;;;;5181819;28;19925;-64
2021/07/25 13:08:04;;;;;;;;;;;25.00;70.40;;;;;;5165908;28;19929;-64
2021/07/25 13:10:37;;;;;;;;;;;25.00;70.40;;;;;;5169309;28;19928;-64
2021/07/25 13:13:09;;;;;;;;;;;25.00;70.40;;;;;;5190440;28;19925;-65
2021/07/25 13:15:41;;;;;;;;;;;25.00;70.40;;;;;;5202752;28;19936;-64
2021/07/25 13:18:13;;;;;;;;;;;25.00;70.40;;;;;;5192463;28;19932;-63
2021/07/25 13:20:46;;;;;;;;;;;25.00;70.40;;;;;;5193048;28;20278;-64
2021/07/25 13:23:18;;;;;;;;;;;25.00;70.40;;;;;;5168347;28;19935;-64
2021/07/25 13:25:51;;;;;;;;;;;25.00;70.40;;;;;;5185788;28;19929;-63
2021/07/25 13:28:23;;;;;;;;;;;25.00;70.40;;;;;;5193516;28;19925;-64
2021/07/25 13:30:56;;;;;;;;;;;25.00;70.40;;;;;;5189437;28;19930;-64
2021/07/25 13:33:28;;;;;;;;;;;25.00;70.40;;;;;;5189148;28;19924;-64
2021/07/25 13:36:01;;;;;;;;;;;25.00;70.40;;;;;;5194994;28;19932;-64
2021/07/25 13:38:35;;;;;;;;;;;25.00;70.40;;;;;;5171458;28;19928;-64
2021/07/25 13:41:08;;;;;;;;;;;25.00;70.40;;;;;;5187430;28;19921;-63
2021/07/25 13:43:42;;;;;;;;;;;25.00;70.50;;;;;;5188553;28;21474;-64
2021/07/25 13:46:29;;;;;;;;;;;25.00;70.50;;;;;;5158974;28;19928;-64
2021/07/25 13:49:02;;;;;;;;;;;25.00;70.50;;;;;;5192426;28;19925;-65
2021/07/25 13:51:34;;;;;;;;;;;25.00;70.60;;;;;;5185027;28;19928;-64
2021/07/25 13:54:06;;;;;;;;;;;25.00;70.50;;;;;;5190494;28;19921;-64
2021/07/25 13:56:39;;;;;;;;;;;25.00;70.50;;;;;;5197017;28;19929;-64
2021/07/25 13:59:11;;;;;;;;;;;25.00;70.60;;;;;;5177809;28;19940;-64
2021/07/25 14:01:43;;;;;;;;;;;25.00;70.60;;;;;;5192226;28;19928;-65
2021/07/25 14:04:16;;;;;;;;;;;25.00;70.60;;;;;;5197256;28;20391;-64
2021/07/25 14:06:49;;;;;;;;;;;25.10;70.70;;;;;;5192273;28;19920;-64
2021/07/25 14:09:21;;;;;;;;;;;25.00;70.60;;;;;;5196233;28;20332;-64
2021/07/25 14:11:53;;;;;;;;;;;25.00;70.60;;;;;;5203978;28;20170;-64
2021/07/25 14:14:29;;;;;;;;;;;25.00;70.60;;;;;;5193032;28;20895;-63
2021/07/25 14:17:04;;;;;;;;;;;25.00;70.60;;;;;;5200621;28;19921;-63
2021/07/25 14:19:36;;;;;;;;;;;25.00;70.60;;;;;;5195065;28;19943;-64
2021/07/25 14:22:09;;;;;;;;;;;25.10;70.70;;;;;;5192671;28;20302;-64
2021/07/25 14:24:42;;;;;;;;;;;25.10;70.70;;;;;;5196274;28;19928;-64
2021/07/25 14:27:14;;;;;;;;;;;25.10;70.70;;;;;;5194778;28;19929;-64
2021/07/25 14:29:46;;;;;;;;;;;25.10;70.70;;;;;;5178150;28;19929;-65
2021/07/25 14:32:19;;;;;;;;;;;25.10;70.70;;;;;;5161990;28;19928;-64
2021/07/25 14:34:52;;;;;;;;;;;25.10;70.70;;;;;;5171655;28;20348;-64
2021/07/25 14:37:24;;;;;;;;;;;25.10;71.00;;;;;;5138057;28;19930;-63
2021/07/25 14:39:58;;;;;;;;;;;25.10;72.00;;;;;;5120554;28;19936;-63
2021/07/25 14:42:30;;;;;;;;;;;25.10;71.90;;;;;;5157674;28;20424;-63
2021/07/25 14:45:04;;;;;;;;;;;25.20;72.00;;;;;;5122336;28;19929;-64
2021/07/25 14:47:37;;;;;;;;;;;25.30;72.00;;;;;;5149531;28;19936;-63
2021/07/25 14:50:10;;;;;;;;;;;25.40;72.00;;;;;;5150998;28;19944;-63
2021/07/25 14:52:42;;;;;;;;;;;25.50;71.70;;;;;;5147670;28;19925;-64
2021/07/25 14:55:15;;;;;;;;;;;25.60;71.70;;;;;;5148604;28;19924;-64
2021/07/25 14:57:47;;;;;;;;;;;25.60;71.50;;;;;;5150959;28;20425;-63
2021/07/25 15:00:20;;;;;;;;;;;25.70;71.40;;;;;;4475115;28;9999955;-64
2021/07/25 15:02:52;;;;;;;;;;;25.80;71.40;;;;;;5159381;28;19932;-63